Time;durP1;ratioP1;P1;durP2;ratioP2;P2;SDS_P1;SDS_P2;PMS_P1;PMS_P2;Temp;Humidity;BMP_temperature;BMP_pressure;BME280_temperature;BME280_humidity;BME280_pressure;Samples;Min_cycle;Max_cycle;Signal;HPM_P1;HPM_P2
2022/08/26 00:03:52;;;;;;;5.85;5.25;;;26.10;60.50;;;;;;10475402;28;20264;-50
2022/08/26 00:08:53;;;;;;;6.55;5.95;;;26.10;60.50;;;;;;10493208;28;20031;-51
2022/08/26 00:13:56;;;;;;;5.38;4.82;;;26.10;60.60;;;;;;10475364;28;20025;-49
2022/08/26 00:18:56;;;;;;;5.22;4.72;;;26.10;60.60;;;;;;10492683;28;20033;-51
2022/08/26 00:23:57;;;;;;;5.70;5.20;;;26.10;60.60;;;;;;10492517;28;20024;-51
2022/08/26 00:28:58;;;;;;;6.80;5.68;;;26.10;60.60;;;;;;10511411;28;20108;-51
2022/08/26 00:33:58;;;;;;;5.70;4.28;;;26.10;60.60;;;;;;10516570;28;20429;-51
2022/08/26 00:38:59;;;;;;;6.32;4.50;;;26.10;60.60;;;;;;10490106;28;20048;-50
2022/08/26 00:44:00;;;;;;;4.97;4.50;;;26.10;60.60;;;;;;10491933;28;20510;-50
2022/08/26 00:49:12;;;;;;;5.07;4.47;;;26.10;60.60;;;;;;10473377;28;20121;-50
2022/08/26 00:54:14;;;;;;;4.57;4.18;;;26.00;60.50;;;;;;10490099;28;20024;-51
2022/08/26 00:59:16;;;;;;;7.82;5.43;;;26.10;61.20;;;;;;10489837;28;20036;-51
2022/08/26 01:04:21;;;;;;;5.13;4.43;;;26.00;60.50;;;;;;10490786;28;20032;-51
2022/08/26 01:09:23;;;;;;;4.82;4.18;;;26.00;60.50;;;;;;10472406;28;20021;-50
2022/08/26 01:14:28;;;;;;;4.88;4.40;;;26.00;60.50;;;;;;10490076;28;20408;-52
2022/08/26 01:19:39;;;;;;;4.53;4.10;;;26.00;60.50;;;;;;10490502;28;20057;-50
2022/08/26 01:24:41;;;;;;;4.63;4.10;;;26.00;60.50;;;;;;10472132;28;20162;-50
2022/08/26 01:29:45;;;;;;;4.43;4.03;;;26.00;60.50;;;;;;10513815;28;20020;-51
2022/08/26 01:34:47;;;;;;;4.40;3.92;;;26.00;60.60;;;;;;10509484;28;20029;-51
2022/08/26 01:39:53;;;;;;;4.30;3.67;;;26.00;60.50;;;;;;10487615;28;20076;-51
2022/08/26 01:45:08;;;;;;;5.13;4.07;;;26.00;60.50;;;;;;10489787;28;20044;-51
2022/08/26 01:50:23;;;;;;;6.05;3.58;;;26.00;60.50;;;;;;10488682;28;20566;-50
2022/08/26 01:55:27;;;;;;;4.72;4.22;;;26.00;60.70;;;;;;10489362;28;20431;-56
2022/08/26 02:00:28;;;;;;;4.88;4.38;;;26.00;60.70;;;;;;10488815;28;20059;-51
2022/08/26 02:05:29;;;;;;;4.43;4.00;;;26.00;60.70;;;;;;10488646;28;20047;-51
2022/08/26 02:10:30;;;;;;;4.00;3.60;;;26.00;60.70;;;;;;10470703;28;20025;-51
2022/08/26 02:15:32;;;;;;;4.10;3.70;;;26.00;60.80;;;;;;10488145;28;20395;-51
2022/08/26 02:20:33;;;;;;;4.10;3.70;;;26.00;60.80;;;;;;10488289;28;20037;-51
2022/08/26 02:25:59;;;;;;;4.05;3.65;;;26.00;60.80;;;;;;10487904;28;20445;-51
2022/08/26 02:30:59;;;;;;;4.57;3.47;;;26.00;60.80;;;;;;10523235;28;20036;-49
2022/08/26 02:36:00;;;;;;;4.60;3.30;;;26.00;60.80;;;;;;10497703;28;20024;-50
2022/08/26 02:41:01;;;;;;;3.70;2.92;;;26.00;60.80;;;;;;10487524;28;20083;-50
2022/08/26 02:46:02;;;;;;;3.75;3.45;;;26.00;60.80;;;;;;10487602;28;20028;-50
2022/08/26 02:51:03;;;;;;;4.35;3.72;;;26.00;60.90;;;;;;10487481;28;20099;-51
2022/08/26 02:56:06;;;;;;;4.05;3.65;;;26.00;60.90;;;;;;10487326;28;20037;-52
2022/08/26 03:01:17;;;;;;;3.67;3.13;;;26.00;60.90;;;;;;10491031;28;20028;-51
2022/08/26 03:06:18;;;;;;;4.85;3.22;;;25.90;60.80;;;;;;10494661;28;20037;-51
2022/08/26 03:11:19;;;;;;;3.88;3.00;;;26.00;60.90;;;;;;10495424;28;20484;-50
2022/08/26 03:16:19;;;;;;;4.65;3.22;;;25.90;60.80;;;;;;10495243;28;20102;-51
2022/08/26 03:21:20;;;;;;;3.70;3.30;;;25.90;60.90;;;;;;10495492;28;20115;-50
2022/08/26 03:26:21;;;;;;;3.70;3.10;;;25.90;60.90;;;;;;10494981;28;20060;-51
2022/08/26 03:31:23;;;;;;;4.18;3.60;;;25.90;61.00;;;;;;10534832;28;20031;-51
2022/08/26 03:36:24;;;;;;;3.35;2.65;;;25.90;61.00;;;;;;10501062;28;20048;-51
2022/08/26 03:41:25;;;;;;;4.20;3.08;;;25.90;61.00;;;;;;10494243;28;20053;-48
2022/08/26 03:46:25;;;;;;;3.10;2.67;;;25.90;61.00;;;;;;10494123;28;20040;-49
2022/08/26 03:51:27;;;;;;;3.83;3.42;;;25.90;61.00;;;;;;10493820;28;20103;-51
2022/08/26 03:56:32;;;;;;;4.45;3.05;;;25.90;61.10;;;;;;10493414;28;20028;-51
2022/08/26 04:01:32;;;;;;;4.28;2.92;;;25.90;61.10;;;;;;10493651;28;20036;-50
2022/08/26 04:06:36;;;;;;;3.00;2.70;;;25.90;61.10;;;;;;10493434;28;20527;-51
2022/08/26 04:11:38;;;;;;;3.85;3.03;;;25.90;61.10;;;;;;10492802;28;20081;-51
2022/08/26 04:16:41;;;;;;;4.22;2.70;;;25.90;61.10;;;;;;10492574;28;20024;-50
2022/08/26 04:21:44;;;;;;;3.25;2.60;;;25.90;61.10;;;;;;10492804;28;20229;-51
2022/08/26 04:26:45;;;;;;;4.15;2.40;;;25.90;61.10;;;;;;10494121;28;20086;-49
2022/08/26 04:31:49;;;;;;;2.95;2.53;;;25.90;61.10;;;;;;10532646;28;20277;-50
2022/08/26 04:36:50;;;;;;;2.58;2.20;;;25.80;61.00;;;;;;10492429;28;20082;-51
2022/08/26 04:41:53;;;;;;;4.15;2.42;;;25.80;61.10;;;;;;10487614;28;20056;-52
2022/08/26 04:46:56;;;;;;;4.25;2.55;;;25.80;61.10;;;;;;10492556;28;20387;-49
2022/08/26 04:51:56;;;;;;;3.42;2.58;;;25.90;61.20;;;;;;10492308;28;20127;-52
2022/08/26 04:56:57;;;;;;;3.17;2.35;;;25.80;61.10;;;;;;10492105;28;20116;-51
2022/08/26 05:01:59;;;;;;;4.65;2.55;;;25.80;61.10;;;;;;10492576;28;20033;-52
2022/08/26 05:07:00;;;;;;;3.10;1.70;;;25.80;61.20;;;;;;10492670;28;20027;-51
2022/08/26 05:12:01;;;;;;;2.90;2.22;;;25.80;61.10;;;;;;10491138;28;20032;-52
2022/08/26 05:17:02;;;;;;;3.80;2.28;;;25.80;61.20;;;;;;10492764;28;20037;-51
2022/08/26 05:22:04;;;;;;;4.35;2.78;;;25.80;61.20;;;;;;10490234;28;20031;-52
2022/08/26 05:27:06;;;;;;;2.30;1.98;;;25.80;61.20;;;;;;10495340;28;20108;-52
2022/08/26 05:32:06;;;;;;;2.53;1.95;;;25.80;61.30;;;;;;10533262;28;20027;-50
2022/08/26 05:37:07;;;;;;;3.13;2.25;;;25.80;61.30;;;;;;10491557;28;20413;-51
2022/08/26 05:42:08;;;;;;;2.63;2.40;;;25.80;61.30;;;;;;10491017;28;20058;-51
2022/08/26 05:47:08;;;;;;;3.90;2.20;;;25.80;61.40;;;;;;10490811;28;20036;-51
2022/08/26 05:52:09;;;;;;;3.92;1.90;;;25.80;61.40;;;;;;10491215;28;20468;-51
2022/08/26 05:57:11;;;;;;;2.45;2.05;;;25.80;61.40;;;;;;10489511;28;20108;-52
2022/08/26 06:02:11;;;;;;;3.20;2.05;;;25.80;61.40;;;;;;10490253;28;20515;-54
2022/08/26 06:07:12;;;;;;;3.88;2.30;;;25.80;61.40;;;;;;10490901;28;20035;-53
2022/08/26 06:12:14;;;;;;;2.42;1.83;;;25.80;61.40;;;;;;10490156;28;20031;-53
2022/08/26 06:17:15;;;;;;;3.13;1.85;;;25.80;61.50;;;;;;10489956;28;20039;-54
2022/08/26 06:27:35;;;;;;;1.83;1.40;;;25.80;61.40;;;;;;10498183;28;20028;-53
2022/08/26 06:32:36;;;;;;;3.17;2.30;;;25.80;61.40;;;;;;10527531;28;20099;-53
2022/08/26 06:37:37;;;;;;;2.55;1.70;;;25.80;61.50;;;;;;10489626;28;20177;-53
2022/08/26 06:42:38;;;;;;;2.38;1.70;;;25.80;61.50;;;;;;10489461;28;20055;-50
2022/08/26 06:47:39;;;;;;;3.80;1.88;;;25.80;61.50;;;;;;10488499;28;20028;-54
2022/08/26 06:52:43;;;;;;;3.28;1.65;;;25.80;61.50;;;;;;10471784;28;20066;-52
2022/08/26 06:57:43;;;;;;;3.22;1.77;;;25.80;61.60;;;;;;10489587;28;20464;-53
2022/08/26 07:02:44;;;;;;;2.85;2.00;;;25.80;61.40;;;;;;10488728;28;20112;-53
2022/08/26 07:07:46;;;;;;;2.45;1.75;;;25.70;61.40;;;;;;10489375;28;20032;-53
2022/08/26 07:12:48;;;;;;;4.32;1.83;;;25.70;61.60;;;;;;10487801;28;20020;-54
2022/08/26 07:17:48;;;;;;;2.50;1.77;;;25.80;61.50;;;;;;10488993;28;20055;-50
2022/08/26 07:22:49;;;;;;;2.70;1.35;;;25.80;61.50;;;;;;10470987;28;20495;-51
2022/08/26 07:27:50;;;;;;;2.78;1.95;;;25.70;61.50;;;;;;10498240;28;20115;-49
2022/08/26 07:32:56;;;;;;;3.25;2.08;;;25.80;61.60;;;;;;10524167;28;20150;-51
2022/08/26 07:37:56;;;;;;;3.03;1.70;;;25.70;61.50;;;;;;10489529;28;20446;-50
2022/08/26 07:42:57;;;;;;;2.42;1.30;;;25.70;61.40;;;;;;10487028;28;20056;-50
2022/08/26 07:47:58;;;;;;;2.80;1.73;;;25.70;61.50;;;;;;10475276;28;20028;-50
2022/08/26 07:53:00;;;;;;;2.47;1.27;;;25.70;61.50;;;;;;10496047;28;20032;-50
2022/08/26 07:58:01;;;;;;;2.03;1.40;;;25.70;61.50;;;;;;10495354;28;20029;-50
2022/08/26 08:03:04;;;;;;;3.15;1.60;;;25.70;61.60;;;;;;10495132;28;20032;-51
2022/08/26 08:08:08;;;;;;;1.63;1.35;;;25.70;61.50;;;;;;10477089;28;20403;-50
2022/08/26 08:13:10;;;;;;;3.22;1.83;;;25.70;61.50;;;;;;10494604;28;20394;-51
2022/08/26 08:18:11;;;;;;;2.00;1.42;;;25.70;61.50;;;;;;10494629;28;20506;-51
2022/08/26 08:23:12;;;;;;;3.20;1.60;;;25.60;61.50;;;;;;10494952;28;20060;-52
2022/08/26 08:28:14;;;;;;;2.03;1.20;;;25.70;61.60;;;;;;10507179;28;20036;-50
2022/08/26 08:33:14;;;;;;;5.47;1.38;;;25.70;61.60;;;;;;10526355;28;20024;-52
2022/08/26 08:38:15;;;;;;;3.13;1.80;;;25.70;61.50;;;;;;10492827;28;20111;-51
2022/08/26 08:43:38;;;;;;;2.05;1.60;;;25.70;61.50;;;;;;10493711;28;20036;-51
2022/08/26 08:48:51;;;;;;;2.70;1.20;;;25.70;61.50;;;;;;10492274;28;20059;-52
2022/08/26 08:53:54;;;;;;;3.47;1.77;;;25.70;61.50;;;;;;10493851;28;20039;-50
2022/08/26 08:59:19;;;;;;;2.17;1.42;;;25.70;61.50;;;;;;10474259;28;20044;-50
2022/08/26 09:05:04;;;;;;;1.63;1.13;;;25.70;61.50;;;;;;10492810;28;20032;-51
2022/08/26 09:10:31;;;;;;;3.78;2.15;;;25.70;61.60;;;;;;10492907;28;20024;-49
2022/08/26 09:16:12;;;;;;;1.70;1.40;;;25.70;61.60;;;;;;10491367;28;20060;-51
2022/08/26 09:21:16;;;;;;;4.10;1.50;;;25.70;61.60;;;;;;10469567;28;20105;-49
2022/08/26 09:26:26;;;;;;;2.88;1.63;;;25.70;61.60;;;;;;10490910;28;20028;-50
2022/08/26 09:31:34;;;;;;;3.20;1.50;;;25.70;61.60;;;;;;10532315;28;20031;-52
2022/08/26 09:36:40;;;;;;;2.90;1.25;;;25.60;61.50;;;;;;10495188;28;20032;-51
2022/08/26 09:41:40;;;;;;;1.50;1.15;;;25.60;61.60;;;;;;10490986;28;20448;-52
2022/08/26 09:46:54;;;;;;;2.47;1.30;;;25.60;61.60;;;;;;10489342;28;20039;-48
2022/08/26 09:52:19;;;;;;;2.40;1.38;;;25.60;61.60;;;;;;10489816;28;20050;-51
2022/08/26 09:57:27;;;;;;;5.13;1.60;;;25.60;61.60;;;;;;10473136;28;20032;-51
2022/08/26 10:02:31;;;;;;;;;;;25.60;61.70;;;;;;10489972;28;20020;-50
2022/08/26 10:07:50;;;;;;;1.20;1.02;;;25.60;61.50;;;;;;10490421;28;19958;-51
2022/08/26 10:13:10;;;;;;;2.35;1.65;;;25.60;61.50;;;;;;10490277;28;20036;-52
2022/08/26 10:18:24;;;;;;;1.35;0.88;;;25.60;61.60;;;;;;10489384;28;20024;-49
2022/08/26 10:23:28;;;;;;;2.53;1.17;;;25.60;61.50;;;;;;10488832;28;20156;-55
2022/08/26 10:28:37;;;;;;;1.52;1.00;;;25.60;61.40;;;;;;10503786;28;20032;-50
2022/08/26 10:33:38;;;;;;;2.92;1.48;;;25.70;61.50;;;;;;10519389;28;20052;-48
2022/08/26 10:38:40;;;;;;;3.15;1.58;;;25.70;61.40;;;;;;10488877;28;20136;-49
2022/08/26 10:43:59;;;;;;;2.70;1.52;;;25.70;61.40;;;;;;10489505;28;20040;-50
2022/08/26 10:49:14;;;;;;;1.70;0.93;;;25.70;61.40;;;;;;10488693;28;20484;-56
2022/08/26 10:54:42;;;;;;;4.40;1.50;;;25.70;61.40;;;;;;10489522;28;20115;-50
2022/08/26 11:05:44;;;;;;;2.10;1.52;;;25.70;61.40;;;;;;10346927;28;20038;-51
2022/08/26 11:10:51;;;;;;;2.60;1.40;;;25.70;61.40;;;;;;10452145;28;20040;-51
2022/08/26 11:15:51;;;;;;;1.90;1.10;;;25.70;61.40;;;;;;10488874;28;20043;-50
2022/08/26 11:20:52;;;;;;;1.60;1.33;;;25.70;61.50;;;;;;10472866;28;20503;-51
2022/08/26 11:25:55;;;;;;;3.97;1.42;;;25.70;61.50;;;;;;10496524;28;20028;-51
2022/08/26 11:30:56;;;;;;;1.55;1.00;;;25.70;61.40;;;;;;10532260;28;20035;-51
2022/08/26 11:35:57;;;;;;;2.75;1.20;;;25.70;61.40;;;;;;10506001;28;20050;-52
2022/08/26 11:41:10;;;;;;;1.55;1.20;;;25.70;61.40;;;;;;10494704;28;20052;-50
2022/08/26 11:46:21;;;;;;;1.80;1.10;;;25.60;61.40;;;;;;10494867;28;20074;-52
2022/08/26 11:51:23;;;;;;;1.55;0.90;;;25.70;61.50;;;;;;10494855;28;20134;-50
2022/08/26 11:56:32;;;;;;;1.45;1.00;;;25.60;61.40;;;;;;10495810;28;20161;-51
2022/08/26 12:01:53;;;;;;;3.97;1.40;;;25.60;61.40;;;;;;10494562;28;20029;-51
2022/08/26 12:06:55;;;;;;;1.65;0.90;;;25.70;61.40;;;;;;10494231;28;20033;-49
2022/08/26 12:12:13;;;;;;;1.50;0.93;;;25.70;61.40;;;;;;10493373;28;20029;-52
2022/08/26 12:17:24;;;;;;;4.70;1.38;;;25.70;61.40;;;;;;10495130;28;20036;-51
2022/08/26 12:22:30;;;;;;;2.47;0.88;;;25.70;61.30;;;;;;10494560;28;20106;-48
2022/08/26 12:27:41;;;;;;;1.67;0.70;;;25.70;61.30;;;;;;10501364;28;20024;-52
2022/08/26 12:32:53;;;;;;;4.30;1.13;;;25.60;61.20;;;;;;10529158;28;20025;-51
2022/08/26 12:37:55;;;;;;;1.92;0.80;;;25.60;61.20;;;;;;10493284;28;20041;-50
2022/08/26 12:43:02;;;;;;;0.88;0.70;;;25.60;61.30;;;;;;10492095;28;20129;-51
2022/08/26 12:48:19;;;;;;;2.65;1.00;;;25.70;61.30;;;;;;10475488;28;20044;-50
2022/08/26 12:53:23;;;;;;;2.88;1.00;;;25.60;61.30;;;;;;10492347;28;20111;-52
2022/08/26 12:58:32;;;;;;;1.20;0.88;;;25.70;61.30;;;;;;10491804;28;20031;-52
2022/08/26 13:03:44;;;;;;;1.45;0.77;;;25.60;61.30;;;;;;10491465;28;20021;-51
2022/08/26 13:09:18;;;;;;;1.58;0.90;;;25.60;61.20;;;;;;10493338;28;20037;-51
2022/08/26 13:14:23;;;;;;;1.73;0.82;;;25.60;61.20;;;;;;10468458;28;20128;-49
2022/08/26 13:19:24;;;;;;;1.60;1.00;;;25.60;61.20;;;;;;10492537;28;20489;-52
2022/08/26 13:24:38;;;;;;;1.23;0.63;;;25.60;61.20;;;;;;10492266;28;20476;-51
2022/08/26 13:29:40;;;;;;;1.20;0.75;;;25.60;61.20;;;;;;10515830;28;20449;-51
2022/08/26 13:34:49;;;;;;;2.80;1.23;;;25.60;61.20;;;;;;10511913;28;20107;-50
2022/08/26 13:39:52;;;;;;;1.70;0.95;;;25.60;61.20;;;;;;10491677;28;20086;-51
2022/08/26 13:44:56;;;;;;;1.27;0.80;;;25.60;61.20;;;;;;10490540;28;20047;-51
2022/08/26 13:49:57;;;;;;;1.40;0.90;;;25.60;61.10;;;;;;10473350;28;20071;-52
2022/08/26 13:54:59;;;;;;;1.83;0.73;;;25.60;61.10;;;;;;10491611;28;20024;-51
2022/08/26 13:59:59;;;;;;;1.13;0.88;;;25.60;61.20;;;;;;10473452;28;20472;-51
2022/08/26 14:05:00;;;;;;;1.13;0.65;;;25.60;61.20;;;;;;10490399;28;20028;-52
2022/08/26 14:10:01;;;;;;;1.40;0.60;;;25.60;61.10;;;;;;10490434;28;20078;-50
2022/08/26 14:15:02;;;;;;;1.92;0.90;;;25.60;61.20;;;;;;10489665;28;20039;-51
2022/08/26 14:20:04;;;;;;;1.45;0.70;;;25.60;61.10;;;;;;10490234;28;20028;-51
2022/08/26 14:25:05;;;;;;;1.25;0.85;;;25.60;61.10;;;;;;10490525;28;20024;-51
2022/08/26 14:30:07;;;;;;;1.92;0.70;;;25.60;61.10;;;;;;10519058;28;20428;-52
2022/08/26 14:35:14;;;;;;;1.35;0.80;;;25.60;61.10;;;;;;10506265;28;20099;-49
2022/08/26 14:40:18;;;;;;;1.65;0.95;;;25.60;61.20;;;;;;10488484;28;20082;-51
2022/08/26 14:45:24;;;;;;;0.88;0.70;;;25.60;61.10;;;;;;10489520;28;20028;-51
2022/08/26 14:50:25;;;;;;;0.50;0.50;;;25.60;61.20;;;;;;10489435;28;20025;-51
2022/08/26 14:55:26;;;;;;;0.90;0.70;;;25.60;61.10;;;;;;10491689;28;20111;-51
2022/08/26 15:00:28;;;;;;;1.80;0.60;;;25.60;61.10;;;;;;10498529;28;20166;-51
2022/08/26 15:05:29;;;;;;;1.02;0.73;;;25.60;61.10;;;;;;10496022;28;20028;-50
2022/08/26 15:10:29;;;;;;;1.50;0.57;;;25.60;61.20;;;;;;10479700;28;20021;-52
2022/08/26 15:15:30;;;;;;;2.25;0.50;;;25.60;61.20;;;;;;10497362;28;20047;-51
2022/08/26 15:20:32;;;;;;;1.25;0.68;;;25.60;61.20;;;;;;10496999;28;20112;-52
2022/08/26 15:25:32;;;;;;;1.00;0.70;;;25.60;61.20;;;;;;10496984;28;20032;-52
2022/08/26 15:30:33;;;;;;;1.05;0.45;;;25.60;61.20;;;;;;10529537;28;20032;-52
2022/08/26 15:35:34;;;;;;;5.43;1.02;;;25.60;61.30;;;;;;10508286;28;20483;-51
2022/08/26 15:40:35;;;;;;;1.70;0.80;;;25.60;61.40;;;;;;10496140;28;20131;-51
2022/08/26 15:45:36;;;;;;;1.00;0.50;;;25.60;61.40;;;;;;10495888;28;20028;-51
2022/08/26 15:50:52;;;;;;;2.95;0.60;;;25.60;61.30;;;;;;10495849;28;20499;-52
2022/08/26 15:55:55;;;;;;;2.45;0.65;;;25.60;61.30;;;;;;10494613;28;20043;-51
2022/08/26 16:00:56;;;;;;;2.13;0.70;;;25.60;61.30;;;;;;10495463;28;20044;-51
2022/08/26 16:05:57;;;;;;;1.02;0.52;;;25.60;61.30;;;;;;10495105;28;20029;-51
2022/08/26 16:10:57;;;;;;;1.67;0.50;;;25.60;61.30;;;;;;10494880;28;20032;-48
2022/08/26 16:16:00;;;;;;;1.42;0.90;;;25.60;61.30;;;;;;10476767;28;20043;-51
2022/08/26 16:21:00;;;;;;;1.15;0.50;;;25.60;61.20;;;;;;10494993;28;20535;-50
2022/08/26 16:26:19;;;;;;;1.27;0.50;;;25.60;61.20;;;;;;10494838;28;20032;-52
2022/08/26 16:31:20;;;;;;;0.75;0.50;;;25.60;61.30;;;;;;10532076;28;20027;-52
2022/08/26 16:36:21;;;;;;;2.03;0.70;;;25.60;61.30;;;;;;10500329;28;20067;-52
2022/08/26 16:41:25;;;;;;;0.70;0.50;;;25.60;61.90;;;;;;10492324;28;20055;-51
2022/08/26 16:46:27;;;;;;;1.40;0.60;;;25.60;61.30;;;;;;10492636;28;20048;-50
2022/08/26 16:51:27;;;;;;;2.33;0.80;;;25.60;61.30;;;;;;10492288;28;20438;-49
2022/08/26 16:56:30;;;;;;;0.93;0.60;;;25.60;61.20;;;;;;10492117;28;20028;-51
2022/08/26 17:01:31;;;;;;;2.60;0.68;;;25.60;61.20;;;;;;10493346;28;20028;-52
2022/08/26 17:06:32;;;;;;;2.25;0.70;;;25.60;61.20;;;;;;10492774;28;20033;-50
2022/08/26 17:11:34;;;;;;;1.92;0.80;;;25.60;61.10;;;;;;10492422;28;20078;-51
2022/08/26 17:16:35;;;;;;;1.42;0.70;;;25.60;61.10;;;;;;10491305;28;20472;-51
2022/08/26 17:21:37;;;;;;;2.92;0.70;;;25.50;61.00;;;;;;10491330;28;20044;-51
2022/08/26 17:26:42;;;;;;;1.27;0.60;;;25.50;61.00;;;;;;10492166;28;20103;-50
2022/08/26 17:31:43;;;;;;;0.98;0.40;;;25.50;61.00;;;;;;10533898;28;20297;-51
2022/08/26 17:36:44;;;;;;;1.67;0.90;;;25.50;61.00;;;;;;10494458;28;20565;-51
2022/08/26 17:41:52;;;;;;;1.27;0.70;;;25.50;61.00;;;;;;10568335;27;20129;-50
2022/08/26 17:46:53;;;;;;;1.88;0.90;;;25.50;60.90;;;;;;10526426;28;20032;-49
2022/08/26 17:51:57;;;;;;;1.77;1.00;;;25.50;60.90;;;;;;10525806;28;20029;-50
2022/08/26 17:56:58;;;;;;;1.45;0.88;;;25.50;61.00;;;;;;10525556;28;20682;-49
2022/08/26 18:01:59;;;;;;;1.63;0.77;;;25.50;60.90;;;;;;10525684;28;20028;-49
2022/08/26 18:07:00;;;;;;;2.25;0.80;;;25.50;60.90;;;;;;10524303;28;20043;-52
2022/08/26 18:12:01;;;;;;;2.05;0.80;;;25.50;60.90;;;;;;10514780;28;20403;-49
2022/08/26 18:17:02;;;;;;;1.15;0.65;;;25.40;60.80;;;;;;10482702;28;20365;-49
2022/08/26 18:22:03;;;;;;;1.52;0.70;;;25.40;60.80;;;;;;10483039;28;20107;-50
2022/08/26 18:27:04;;;;;;;3.13;1.02;;;25.40;60.80;;;;;;10482570;28;20400;-48
2022/08/26 18:32:04;;;;;;;1.35;0.73;;;25.40;60.80;;;;;;10481060;28;20405;-51
2022/08/26 18:37:05;;;;;;;1.63;0.70;;;25.40;60.80;;;;;;10526014;28;20032;-50
2022/08/26 18:42:06;;;;;;;2.17;1.48;;;25.40;60.80;;;;;;10565611;28;20027;-51
2022/08/26 18:47:07;;;;;;;1.58;0.70;;;25.40;60.80;;;;;;10565505;28;20028;-50
2022/08/26 18:52:08;;;;;;;2.05;1.23;;;25.40;60.80;;;;;;10543899;28;20036;-48
2022/08/26 18:57:10;;;;;;;2.22;0.82;;;25.40;60.80;;;;;;10537286;28;20024;-50
2022/08/26 19:02:11;;;;;;;0.90;0.50;;;25.40;60.70;;;;;;10519993;28;20483;-51
2022/08/26 19:07:13;;;;;;;1.90;0.75;;;25.40;60.80;;;;;;10537167;28;20035;-51
2022/08/26 19:12:14;;;;;;;1.83;0.90;;;25.40;60.80;;;;;;10537176;28;20028;-51
2022/08/26 19:17:14;;;;;;;2.58;1.00;;;25.40;60.80;;;;;;10534605;28;20024;-50
2022/08/26 19:22:15;;;;;;;3.67;1.23;;;25.40;60.70;;;;;;10516299;28;20020;-50
2022/08/26 19:27:16;;;;;;;1.45;0.70;;;25.40;60.80;;;;;;10528710;28;20115;-47
2022/08/26 19:32:16;;;;;;;1.83;0.90;;;25.40;60.70;;;;;;10474591;28;20086;-51
2022/08/26 19:37:20;;;;;;;0.98;0.63;;;25.40;60.80;;;;;;10498748;28;20093;-50
2022/08/26 19:42:21;;;;;;;1.58;0.60;;;25.40;60.70;;;;;;10515768;28;20047;-51
2022/08/26 19:47:22;;;;;;;2.33;0.88;;;25.30;60.70;;;;;;10515006;28;20122;-50
2022/08/26 19:52:23;;;;;;;1.33;0.73;;;25.30;60.70;;;;;;10533606;28;20107;-51
2022/08/26 19:57:24;;;;;;;1.30;0.63;;;25.30;60.70;;;;;;10532868;28;20080;-50
2022/08/26 20:02:29;;;;;;;1.08;0.60;;;25.30;60.70;;;;;;10532452;28;20084;-50
2022/08/26 20:07:30;;;;;;;2.55;0.98;;;25.30;60.70;;;;;;10515280;28;20032;-51
2022/08/26 20:12:32;;;;;;;1.25;0.80;;;25.30;60.60;;;;;;10532179;28;20024;-51
2022/08/26 20:17:33;;;;;;;1.67;0.60;;;25.30;60.60;;;;;;10532126;28;20067;-51
2022/08/26 20:22:36;;;;;;;2.00;0.70;;;25.30;60.60;;;;;;10531799;28;20024;-50
2022/08/26 20:27:36;;;;;;;0.80;0.60;;;25.30;61.20;;;;;;10524277;28;20025;-49
2022/08/26 20:32:39;;;;;;;2.15;0.70;;;25.30;60.60;;;;;;10475690;28;20035;-51
2022/08/26 20:37:40;;;;;;;2.33;0.93;;;25.30;60.50;;;;;;10513081;28;20040;-51
2022/08/26 20:42:41;;;;;;;1.30;0.80;;;25.30;60.50;;;;;;10531085;28;20024;-49
2022/08/26 20:47:42;;;;;;;1.45;0.68;;;25.30;60.40;;;;;;10530920;28;20399;-47
2022/08/26 20:52:43;;;;;;;1.08;0.80;;;25.20;60.70;;;;;;10512694;28;20035;-50
2022/08/26 20:57:43;;;;;;;1.92;0.90;;;25.20;60.30;;;;;;10512459;28;20035;-51
2022/08/26 21:02:45;;;;;;;1.10;0.80;;;25.20;60.20;;;;;;10512115;28;20528;-51
2022/08/26 21:07:45;;;;;;;0.90;0.75;;;25.20;60.10;;;;;;10530627;28;20730;-50
2022/08/26 21:12:46;;;;;;;0.93;0.68;;;25.30;60.10;;;;;;10529704;28;20028;-50
2022/08/26 21:17:47;;;;;;;1.92;0.73;;;25.30;60.10;;;;;;10529864;28;20024;-50
2022/08/26 21:22:48;;;;;;;1.23;0.88;;;25.20;60.00;;;;;;10511960;28;20090;-49
2022/08/26 21:27:49;;;;;;;2.30;0.63;;;25.20;60.00;;;;;;10502434;28;20438;-50
2022/08/26 21:32:50;;;;;;;2.35;1.05;;;25.20;59.90;;;;;;10475843;28;20069;-50
2022/08/26 21:37:50;;;;;;;1.20;1.00;;;25.20;59.70;;;;;;10529599;28;20444;-50
2022/08/26 21:42:51;;;;;;;1.67;1.08;;;25.20;59.70;;;;;;10530026;28;20026;-49
2022/08/26 21:47:52;;;;;;;1.67;0.90;;;25.20;59.70;;;;;;10529499;28;20450;-49
2022/08/26 21:52:52;;;;;;;1.52;0.75;;;25.20;59.50;;;;;;10529553;28;20399;-50
2022/08/26 21:57:53;;;;;;;2.90;0.88;;;25.20;59.50;;;;;;10529721;28;20563;-50
2022/08/26 22:02:58;;;;;;;3.00;1.20;;;25.20;59.40;;;;;;10512298;28;20028;-50
2022/08/26 22:07:58;;;;;;;1.77;1.00;;;25.20;59.40;;;;;;10529085;28;20103;-47
2022/08/26 22:12:59;;;;;;;2.17;0.93;;;25.20;59.30;;;;;;10528949;28;20034;-49
2022/08/26 22:18:04;;;;;;;2.05;1.08;;;25.20;59.30;;;;;;10528484;28;20024;-49
2022/08/26 22:23:06;;;;;;;2.53;1.20;;;25.20;59.20;;;;;;10511005;28;20136;-48
2022/08/26 22:28:06;;;;;;;2.17;0.95;;;25.20;59.10;;;;;;10523547;28;20037;-50
2022/08/26 22:33:08;;;;;;;1.95;1.33;;;25.20;59.00;;;;;;10484682;28;20032;-50
2022/08/26 22:38:09;;;;;;;2.40;1.13;;;25.10;58.90;;;;;;10536117;28;20139;-50
2022/08/26 22:43:10;;;;;;;3.28;1.48;;;25.10;58.90;;;;;;10518228;28;20392;-48
2022/08/26 22:48:15;;;;;;;2.40;1.00;;;25.10;58.70;;;;;;10536122;28;20084;-49
2022/08/26 22:53:17;;;;;;;1.55;0.85;;;25.10;58.70;;;;;;10517427;28;20031;-50
2022/08/26 22:58:18;;;;;;;3.10;1.13;;;25.10;58.70;;;;;;10535265;28;20043;-50
2022/08/26 23:03:19;;;;;;;2.33;0.93;;;25.10;58.60;;;;;;10535267;28;20369;-49
2022/08/26 23:08:20;;;;;;;2.30;0.80;;;25.10;58.70;;;;;;10516890;28;20271;-51
2022/08/26 23:13:20;;;;;;;1.33;0.98;;;25.10;58.50;;;;;;10499684;28;20043;-50
2022/08/26 23:18:21;;;;;;;1.77;1.10;;;25.10;58.50;;;;;;10534504;28;20085;-50
2022/08/26 23:23:23;;;;;;;2.00;0.90;;;25.10;58.50;;;;;;10534571;28;20590;-50
2022/08/26 23:28:24;;;;;;;2.83;1.25;;;25.10;58.50;;;;;;10485563;28;20025;-49
2022/08/26 23:34:54;;;;;;;2.80;1.35;;;25.00;58.50;;;;;;10503300;28;20409;-50
2022/08/26 23:38:46;;;;;;;1.35;0.93;;;25.10;58.40;;;;;;10533522;28;20048;-47
2022/08/26 23:43:48;;;;;;;2.67;1.40;;;25.00;58.30;;;;;;10534180;28;20032;-48
2022/08/26 23:48:48;;;;;;;1.65;1.15;;;25.00;58.30;;;;;;10533675;28;20088;-51
2022/08/26 23:53:49;;;;;;;1.88;1.23;;;25.00;58.30;;;;;;10533649;28;20089;-50
2022/08/26 23:58:50;;;;;;;2.03;1.20;;;25.00;58.20;;;;;;10515231;28;20035;-50
